createdAt,value
2023-04-28T00:00:56.680Z,3.52
2023-04-28T00:03:43.254Z,3.75
2023-04-28T00:06:30.385Z,5.01
2023-04-28T00:09:16.888Z,5.55
2023-04-28T00:12:03.642Z,4.97
2023-04-28T00:14:53.200Z,4.48
2023-04-28T00:17:40.976Z,4.12
2023-04-28T00:20:27.752Z,3.87
2023-04-28T00:23:15.046Z,3.68
2023-04-28T00:26:01.721Z,3.51
2023-04-28T00:28:48.173Z,3.71
2023-04-28T00:31:34.892Z,4.92
2023-04-28T00:34:21.704Z,5.83
2023-04-28T00:37:09.240Z,5.32
2023-04-28T00:39:56.280Z,4.66
2023-04-28T00:42:43.357Z,4.20
2023-04-28T00:45:30.599Z,3.85
2023-04-28T00:48:17.616Z,3.60
2023-04-28T00:51:05.854Z,3.41
2023-04-28T00:53:52.093Z,3.55
2023-04-28T00:56:38.552Z,4.77
2023-04-28T00:59:25.056Z,5.67
2023-04-28T01:02:16.983Z,5.23
2023-04-28T01:05:04.468Z,4.52
2023-04-28T01:07:51.630Z,4.05
2023-04-28T01:10:44.011Z,3.72
2023-04-28T01:13:33.093Z,3.45
2023-04-28T01:16:20.063Z,3.53
2023-04-28T01:19:18.982Z,4.70
2023-04-28T01:22:05.777Z,5.89
2023-04-28T01:24:53.232Z,6.76
2023-04-28T01:27:39.868Z,7.24
2023-04-28T01:30:26.464Z,6.45
2023-04-28T01:33:13.602Z,5.48
2023-04-28T01:36:01.631Z,4.78
2023-04-28T01:38:48.163Z,4.28
2023-04-28T01:41:34.857Z,3.92
2023-04-28T01:44:21.247Z,3.63
2023-04-28T01:47:08.781Z,3.38
2023-04-28T01:49:55.639Z,3.18
2023-04-28T01:52:42.250Z,3.24
2023-04-28T01:55:33.576Z,4.52
2023-04-28T01:58:20.490Z,5.81
2023-04-28T02:01:08.178Z,6.23
2023-04-28T02:03:55.461Z,5.54
2023-04-28T02:06:42.918Z,4.75
2023-04-28T02:09:29.470Z,4.22
2023-04-28T02:12:18.284Z,3.83
2023-04-28T02:15:05.598Z,3.53
2023-04-28T02:17:53.075Z,3.29
2023-04-28T02:20:40.372Z,3.39
2023-04-28T02:23:28.018Z,4.60
2023-04-28T02:26:15.043Z,5.73
2023-04-28T02:29:03.728Z,6.58
2023-04-28T02:31:52.828Z,6.88
2023-04-28T02:34:39.598Z,6.10
2023-04-28T02:37:27.183Z,5.20
2023-04-28T02:40:14.100Z,4.57
2023-04-28T02:43:01.119Z,4.11
2023-04-28T02:45:47.953Z,3.76
2023-04-28T02:48:36.275Z,3.76
2023-04-28T02:51:22.633Z,4.93
2023-04-28T02:54:09.382Z,6.03
2023-04-28T02:56:57.886Z,7.17
2023-04-28T02:59:44.229Z,9.11
2023-04-28T03:02:30.728Z,9.65
2023-04-28T03:05:16.898Z,8.08
2023-04-28T03:08:03.491Z,6.70
2023-04-28T03:10:50.180Z,5.76
2023-04-28T03:13:36.735Z,5.12
2023-04-28T03:16:24.165Z,4.62
2023-04-28T03:19:12.329Z,4.23
2023-04-28T03:21:58.835Z,3.91
2023-04-28T03:24:45.699Z,3.66
2023-04-28T03:27:32.309Z,3.43
2023-04-28T03:30:19.367Z,4.34
2023-04-28T03:33:06.799Z,7.36
2023-04-28T03:35:53.804Z,9.22
2023-04-28T03:38:41.332Z,9.47
2023-04-28T03:41:29.863Z,7.90
2023-04-28T03:44:35.607Z,6.57
2023-04-28T03:47:22.146Z,5.79
2023-04-28T03:50:09.876Z,5.23
2023-04-28T03:52:56.562Z,4.78
2023-04-28T03:55:45.018Z,4.42
2023-04-28T03:58:31.884Z,4.12
2023-04-28T04:01:18.885Z,3.88
2023-04-28T04:04:08.048Z,3.69
2023-04-28T04:06:55.321Z,5.30
2023-04-28T04:09:41.865Z,8.00
2023-04-28T04:12:29.359Z,9.07
2023-04-28T04:15:16.265Z,7.81
2023-04-28T04:18:03.642Z,6.61
2023-04-28T04:20:58.723Z,5.79
2023-04-28T04:23:45.588Z,5.28
2023-04-28T04:26:32.627Z,4.92
2023-04-28T04:29:19.593Z,4.63
2023-04-28T04:32:06.146Z,4.41
2023-04-28T04:34:53.218Z,5.17
2023-04-28T04:37:40.874Z,7.92
2023-04-28T04:40:27.370Z,9.00
2023-04-28T04:43:14.877Z,7.85
2023-04-28T04:46:05.379Z,6.79
2023-04-28T04:48:52.346Z,6.11
2023-04-28T04:51:39.460Z,5.64
2023-04-28T04:54:26.984Z,5.32
2023-04-28T04:57:14.234Z,5.13
2023-04-28T05:00:39.093Z,4.96
2023-04-28T05:03:26.213Z,4.89
2023-04-28T05:06:12.984Z,4.96
2023-04-28T05:09:03.947Z,7.10
2023-04-28T05:11:52.332Z,9.66
2023-04-28T05:14:39.133Z,10.59
2023-04-28T05:17:25.234Z,9.47
2023-04-28T05:20:12.866Z,8.50
2023-04-28T05:23:00.579Z,7.97
2023-04-28T05:25:49.875Z,7.79
2023-04-28T05:28:38.020Z,8.04
2023-04-28T05:31:26.806Z,9.70
2023-04-28T05:34:15.541Z,13.73
2023-04-28T05:37:02.435Z,15.52
2023-04-28T05:39:50.350Z,16.82
2023-04-28T05:42:36.917Z,18.06
2023-04-28T05:45:23.269Z,19.37
2023-04-28T05:48:10.024Z,20.37
2023-04-28T05:50:57.285Z,20.84
2023-04-28T05:53:48.162Z,21.12
2023-04-28T05:56:35.176Z,21.59
2023-04-28T05:59:22.492Z,22.01
2023-04-28T06:02:09.115Z,22.59
2023-04-28T06:04:58.302Z,23.46
2023-04-28T06:07:45.314Z,24.32
2023-04-28T06:10:31.620Z,25.09
2023-04-28T06:13:18.146Z,25.78
2023-04-28T06:16:05.121Z,26.38
2023-04-28T06:18:55.711Z,26.94
2023-04-28T06:21:42.574Z,27.36
2023-04-28T06:24:29.628Z,27.60
2023-04-28T06:27:17.755Z,27.32
2023-04-28T06:30:05.285Z,27.29
2023-04-28T06:32:54.195Z,27.48
2023-04-28T06:35:41.205Z,27.74
2023-04-28T06:38:27.640Z,28.05
2023-04-28T06:41:14.009Z,28.27
2023-04-28T06:44:03.128Z,28.30
2023-04-28T06:46:51.473Z,28.34
2023-04-28T06:49:38.994Z,28.39
2023-04-28T06:52:36.823Z,28.72
2023-04-28T06:55:36.087Z,29.15
2023-04-28T06:58:28.921Z,29.62
2023-04-28T07:01:18.506Z,30.09
2023-04-28T07:04:18.391Z,30.45
2023-04-28T07:07:07.747Z,30.63
2023-04-28T07:09:54.849Z,30.73
2023-04-28T07:12:41.454Z,30.68
2023-04-28T07:15:28.344Z,30.89
2023-04-28T07:18:15.135Z,31.07
2023-04-28T07:21:03.945Z,31.08
2023-04-28T07:23:56.316Z,31.15
2023-04-28T07:26:43.131Z,31.43
2023-04-28T07:29:33.538Z,31.54
2023-04-28T07:32:20.237Z,31.61
2023-04-28T07:35:07.872Z,31.52
2023-04-28T07:37:55.528Z,31.41
2023-04-28T07:40:43.438Z,31.43
2023-04-28T07:43:31.629Z,31.42
2023-04-28T07:46:17.985Z,29.94
2023-04-28T07:49:04.898Z,27.95
2023-04-28T07:51:53.069Z,26.32
2023-04-28T07:54:39.389Z,24.81
2023-04-28T07:57:26.077Z,23.12
2023-04-28T08:00:13.625Z,21.53
2023-04-28T08:03:02.922Z,20.09
2023-04-28T08:05:51.404Z,18.78
2023-04-28T08:08:38.475Z,17.68
2023-04-28T08:11:25.056Z,16.80
2023-04-28T08:14:11.668Z,16.15
2023-04-28T08:16:58.468Z,16.04
2023-04-28T08:19:45.796Z,17.34
2023-04-28T08:22:32.397Z,18.59
2023-04-28T08:25:19.119Z,20.05
2023-04-28T08:28:08.058Z,21.54
2023-04-28T08:30:54.959Z,23.21
2023-04-28T08:33:44.017Z,24.58
2023-04-28T08:36:32.642Z,24.99
2023-04-28T08:39:23.084Z,24.20
2023-04-28T08:42:09.962Z,22.89
2023-04-28T08:44:59.300Z,21.40
2023-04-28T08:47:50.112Z,20.73
2023-04-28T08:50:39.982Z,21.72
2023-04-28T08:53:27.431Z,23.04
2023-04-28T08:56:16.517Z,23.77
2023-04-28T08:59:04.565Z,24.84
2023-04-28T09:01:51.554Z,25.96
2023-04-28T09:04:39.069Z,26.33
2023-04-28T09:07:26.071Z,25.08
2023-04-28T09:10:25.987Z,23.89
2023-04-28T09:13:26.204Z,23.84
2023-04-28T09:16:13.207Z,24.55
2023-04-28T09:18:59.797Z,25.47
2023-04-28T09:21:54.299Z,26.37
2023-04-28T09:24:44.287Z,26.70
2023-04-28T09:27:31.155Z,26.75
2023-04-28T09:30:18.096Z,26.70
2023-04-28T09:33:05.977Z,26.22
2023-04-28T09:35:54.165Z,25.54
2023-04-28T09:38:44.750Z,25.19
2023-04-28T09:41:42.847Z,24.17
2023-04-28T09:44:30.548Z,23.01
2023-04-28T09:47:24.224Z,21.92
2023-04-28T09:50:16.415Z,20.85
2023-04-28T09:53:03.843Z,20.13
2023-04-28T09:55:52.293Z,19.63
2023-04-28T09:58:43.448Z,18.78
2023-04-28T10:01:40.884Z,17.88
2023-04-28T10:04:30.846Z,17.23
2023-04-28T10:07:20.312Z,16.72
2023-04-28T10:10:08.444Z,16.17
2023-04-28T10:12:59.216Z,15.64
2023-04-28T10:15:48.228Z,15.16
2023-04-28T10:18:39.745Z,14.72
2023-04-28T10:21:28.428Z,14.32
2023-04-28T10:24:21.927Z,14.00
2023-04-28T10:27:09.356Z,13.68
2023-04-28T10:30:27.914Z,13.33
2023-04-28T10:33:26.200Z,13.10
2023-04-28T10:36:51.849Z,13.01
2023-04-28T10:39:38.533Z,13.03
2023-04-28T10:42:56.581Z,13.03
2023-04-28T10:46:12.712Z,13.04
2023-04-28T10:48:59.373Z,13.13
2023-04-28T10:51:46.549Z,13.20
2023-04-28T10:54:32.804Z,13.60
2023-04-28T10:57:20.798Z,14.19
2023-04-28T11:00:32.680Z,14.38
2023-04-28T11:04:08.192Z,14.68
2023-04-28T11:07:14.500Z,15.13
2023-04-28T11:10:02.805Z,15.45
2023-04-28T11:13:27.801Z,15.59
2023-04-28T11:16:19.096Z,15.50
2023-04-28T11:19:12.893Z,15.37
2023-04-28T11:22:03.147Z,15.35
2023-04-28T11:25:02.047Z,15.41
2023-04-28T11:27:49.621Z,15.55
2023-04-28T11:30:35.976Z,15.82
2023-04-28T11:33:23.627Z,16.27
2023-04-28T11:36:35.417Z,16.60
2023-04-28T11:39:32.015Z,16.96
2023-04-28T11:42:19.036Z,17.09
2023-04-28T11:45:06.676Z,17.14
2023-04-28T11:47:53.177Z,17.18
2023-04-28T11:50:40.194Z,17.11
2023-04-28T11:53:44.224Z,17.07
2023-04-28T11:56:36.856Z,17.11
2023-04-28T11:59:36.905Z,17.13
2023-04-28T12:02:30.165Z,17.09
2023-04-28T12:05:18.212Z,17.08
2023-04-28T12:08:05.078Z,17.22
2023-04-28T12:11:15.821Z,17.24
2023-04-28T12:14:08.050Z,16.85
2023-04-28T12:16:57.925Z,16.61
2023-04-28T12:19:45.260Z,16.63
2023-04-28T12:22:46.133Z,16.57
2023-04-28T12:25:34.576Z,16.49
2023-04-28T12:28:21.805Z,16.48
2023-04-28T12:31:09.557Z,16.36
2023-04-28T12:33:57.521Z,16.30
2023-04-28T12:36:45.754Z,16.33
2023-04-28T12:39:39.515Z,16.37
2023-04-28T12:42:26.208Z,16.29
2023-04-28T12:45:12.804Z,16.17
2023-04-28T12:47:59.736Z,16.11
2023-04-28T12:50:46.626Z,16.14
2023-04-28T12:53:34.437Z,16.26
2023-04-28T12:56:21.179Z,16.28
2023-04-28T12:59:08.021Z,16.19
2023-04-28T13:01:55.145Z,16.08
2023-04-28T13:04:42.508Z,15.90
2023-04-28T13:07:29.732Z,15.63
2023-04-28T13:10:17.690Z,15.32
2023-04-28T13:13:05.040Z,15.01
2023-04-28T13:15:52.181Z,14.72
2023-04-28T13:18:39.920Z,14.46
2023-04-28T13:21:28.015Z,14.35
2023-04-28T13:24:14.745Z,14.33
2023-04-28T13:27:03.589Z,14.37
2023-04-28T13:29:50.344Z,14.47
2023-04-28T13:32:37.310Z,14.52
2023-04-28T13:35:26.625Z,14.55
2023-04-28T13:38:13.240Z,14.60
2023-04-28T13:41:00.633Z,14.63
2023-04-28T13:43:47.321Z,14.64
2023-04-28T13:46:33.823Z,14.65
2023-04-28T13:49:23.094Z,14.61
2023-04-28T13:52:09.499Z,14.61
2023-04-28T13:54:56.062Z,14.57
2023-04-28T13:57:42.642Z,14.55
2023-04-28T14:00:34.293Z,14.54
2023-04-28T14:03:22.508Z,14.50
2023-04-28T14:06:09.453Z,14.42
2023-04-28T14:08:56.385Z,14.32
2023-04-28T14:11:43.237Z,14.20
2023-04-28T14:14:29.626Z,14.15
2023-04-28T14:17:16.388Z,14.08
2023-04-28T14:20:04.076Z,14.06
2023-04-28T14:22:50.932Z,14.05
2023-04-28T14:25:37.842Z,13.95
2023-04-28T14:28:24.347Z,13.73
2023-04-28T14:31:11.990Z,13.59
2023-04-28T14:33:59.050Z,13.51
2023-04-28T14:36:47.455Z,13.53
2023-04-28T14:39:35.094Z,13.45
2023-04-28T14:42:22.923Z,13.34
2023-04-28T14:45:11.299Z,13.31
2023-04-28T14:47:58.180Z,13.29
2023-04-28T14:50:46.591Z,13.27
2023-04-28T14:53:33.906Z,13.26
2023-04-28T14:56:20.544Z,13.30
2023-04-28T14:59:07.669Z,13.31
2023-04-28T15:01:55.941Z,13.34
2023-04-28T15:04:42.880Z,13.39
2023-04-28T15:07:32.831Z,13.36
2023-04-28T15:10:19.865Z,13.31
2023-04-28T15:13:07.043Z,13.22
2023-04-28T15:15:54.068Z,13.14
2023-04-28T15:18:40.446Z,13.04
2023-04-28T15:21:27.953Z,12.94
2023-04-28T15:24:15.948Z,12.84
2023-04-28T15:27:03.560Z,12.77
2023-04-28T15:29:50.176Z,12.72
2023-04-28T15:32:36.804Z,12.63
2023-04-28T15:35:23.201Z,12.51
2023-04-28T15:38:10.418Z,12.42
2023-04-28T15:40:58.306Z,12.29
2023-04-28T15:43:45.794Z,12.14
2023-04-28T15:46:35.036Z,12.08
2023-04-28T15:49:21.725Z,11.98
2023-04-28T15:52:08.181Z,11.96
2023-04-28T15:54:55.661Z,11.97
2023-04-28T15:57:43.723Z,11.97
2023-04-28T16:00:30.432Z,11.96
2023-04-28T16:03:17.883Z,11.95
2023-04-28T16:06:07.649Z,11.89
2023-04-28T16:08:56.269Z,11.79
2023-04-28T16:11:44.084Z,11.67
2023-04-28T16:17:19.759Z,11.38
2023-04-28T16:20:09.450Z,11.22
2023-04-28T16:22:56.351Z,11.11
2023-04-28T16:25:43.155Z,11.00
2023-04-28T16:28:30.307Z,10.89
2023-04-28T16:31:16.964Z,10.75
2023-04-28T16:34:03.533Z,10.65
2023-04-28T16:36:51.989Z,10.54
2023-04-28T16:39:38.596Z,10.47
2023-04-28T16:42:25.399Z,10.34
2023-04-28T16:45:12.692Z,10.24
2023-04-28T16:48:01.232Z,10.16
2023-04-28T16:50:48.702Z,10.11
2023-04-28T16:53:35.390Z,10.05
2023-04-28T16:56:21.911Z,9.97
2023-04-28T16:59:10.914Z,9.87
2023-04-28T17:01:59.354Z,9.76
2023-04-28T17:04:47.022Z,9.65
2023-04-28T17:07:33.633Z,9.53
2023-04-28T17:10:22.001Z,9.42
2023-04-28T17:13:10.538Z,9.29
2023-04-28T17:15:57.334Z,9.15
2023-04-28T17:18:44.519Z,9.00
2023-04-28T17:21:33.164Z,8.85
2023-04-28T17:24:19.858Z,8.69
2023-04-28T17:27:10.295Z,8.53
2023-04-28T17:29:56.999Z,8.38
2023-04-28T17:32:44.126Z,8.25
2023-04-28T17:35:32.155Z,8.10
2023-04-28T17:38:21.068Z,7.96
2023-04-28T17:41:07.928Z,7.83
2023-04-28T17:43:54.837Z,7.72
2023-04-28T17:46:42.304Z,7.62
2023-04-28T17:49:29.275Z,7.53
2023-04-28T17:52:17.013Z,7.44
2023-04-28T17:55:04.022Z,7.35
2023-04-28T17:57:51.333Z,7.27
2023-04-28T18:00:39.317Z,7.19
2023-04-28T18:03:26.457Z,7.12
2023-04-28T18:06:13.393Z,7.07
2023-04-28T18:09:00.807Z,7.02
2023-04-28T18:11:47.684Z,6.98
2023-04-28T18:14:34.976Z,6.93
2023-04-28T18:17:22.653Z,6.89
2023-04-28T18:20:09.887Z,6.85
2023-04-28T18:22:56.308Z,6.81
2023-04-28T18:25:43.324Z,6.77
2023-04-28T18:28:30.282Z,6.71
2023-04-28T18:31:17.058Z,6.67
2023-04-28T18:34:04.602Z,6.61
2023-04-28T18:36:51.348Z,6.56
2023-04-28T18:39:38.236Z,6.51
2023-04-28T18:42:31.311Z,6.47
2023-04-28T18:45:18.505Z,6.43
2023-04-28T18:48:05.549Z,6.39
2023-04-28T18:50:54.578Z,6.35
2023-04-28T18:53:42.339Z,6.31
2023-04-28T18:56:28.725Z,6.27
2023-04-28T18:59:15.340Z,6.23
2023-04-28T19:02:03.244Z,6.19
2023-04-28T19:04:50.757Z,6.15
2023-04-28T19:07:37.929Z,6.13
2023-04-28T19:10:24.812Z,6.11
2023-04-28T19:13:11.639Z,6.08
2023-04-28T19:15:59.066Z,6.04
2023-04-28T19:18:46.341Z,6.02
2023-04-28T19:21:43.948Z,6.01
2023-04-28T19:24:30.660Z,5.99
2023-04-28T19:27:17.409Z,5.98
2023-04-28T19:30:06.279Z,5.98
2023-04-28T19:32:52.984Z,5.98
2023-04-28T19:35:39.844Z,5.96
2023-04-28T19:38:27.932Z,5.95
2023-04-28T19:41:15.209Z,5.94
2023-04-28T19:44:01.470Z,5.93
2023-04-28T19:46:48.015Z,5.92
2023-04-28T19:49:34.691Z,5.91
2023-04-28T19:52:22.208Z,5.91
2023-04-28T19:55:10.494Z,6.38
2023-04-28T19:58:02.372Z,8.99
2023-04-28T20:00:49.320Z,11.06
2023-04-28T20:03:36.485Z,11.64
2023-04-28T20:06:25.374Z,10.43
2023-04-28T20:09:12.074Z,9.40
2023-04-28T20:11:58.543Z,8.72
2023-04-28T20:14:44.950Z,8.24
2023-04-28T20:17:31.704Z,7.89
2023-04-28T20:20:18.397Z,7.61
2023-04-28T20:23:04.842Z,7.37
2023-04-28T20:25:51.578Z,7.17
2023-04-28T20:28:39.364Z,7.00
2023-04-28T20:31:26.118Z,6.86
2023-04-28T20:34:13.347Z,6.73
2023-04-28T20:37:03.706Z,7.18
2023-04-28T20:39:53.279Z,9.74
2023-04-28T20:42:40.076Z,11.63
2023-04-28T20:45:27.289Z,11.86
2023-04-28T20:48:13.983Z,10.65
2023-04-28T20:51:03.182Z,9.66
2023-04-28T20:53:50.041Z,9.00
2023-04-28T20:56:36.455Z,8.54
2023-04-28T20:59:22.870Z,8.19
2023-04-28T21:02:09.712Z,7.91
2023-04-28T21:04:56.124Z,7.68
2023-04-28T21:07:43.513Z,7.48
2023-04-28T21:10:31.009Z,7.31
2023-04-28T21:13:17.727Z,7.16
2023-04-28T21:16:05.734Z,7.05
2023-04-28T21:18:51.998Z,6.94
2023-04-28T21:21:38.669Z,7.35
2023-04-28T21:24:25.333Z,9.62
2023-04-28T21:27:12.224Z,10.70
2023-04-28T21:29:58.905Z,11.16
2023-04-28T21:32:45.843Z,11.20
2023-04-28T21:35:32.310Z,10.27
2023-04-28T21:38:18.917Z,9.45
2023-04-28T21:41:06.951Z,8.89
2023-04-28T21:43:53.549Z,8.45
2023-04-28T21:46:40.526Z,8.10
2023-04-28T21:49:27.922Z,7.82
2023-04-28T21:52:15.160Z,7.59
2023-04-28T21:55:02.989Z,7.74
2023-04-28T21:57:50.758Z,10.01
2023-04-28T22:00:44.190Z,12.13
2023-04-28T22:03:34.432Z,12.21
2023-04-28T22:06:22.327Z,10.89
2023-04-28T22:09:08.979Z,9.88
2023-04-28T22:11:55.620Z,9.20
2023-04-28T22:14:42.002Z,8.71
2023-04-28T22:17:28.520Z,8.32
2023-04-28T22:20:15.970Z,8.38
2023-04-28T22:23:02.994Z,9.69
2023-04-28T22:25:49.561Z,10.99
2023-04-28T22:28:36.927Z,12.07
2023-04-28T22:31:23.161Z,12.13
2023-04-28T22:34:09.985Z,11.03
2023-04-28T22:36:57.357Z,10.03
2023-04-28T22:39:43.934Z,9.36
2023-04-28T22:42:30.454Z,8.87
2023-04-28T22:45:16.748Z,8.44
2023-04-28T22:48:03.726Z,8.09
2023-04-28T22:50:50.434Z,7.78
2023-04-28T22:53:36.964Z,7.53
2023-04-28T22:56:23.410Z,7.32
2023-04-28T22:59:10.312Z,7.14
2023-04-28T23:01:57.059Z,6.99
2023-04-28T23:04:43.872Z,6.88
2023-04-28T23:07:30.921Z,6.82
2023-04-28T23:10:18.463Z,6.74
2023-04-28T23:13:05.619Z,6.70
2023-04-28T23:15:54.568Z,6.66
2023-04-28T23:18:41.726Z,6.63
2023-04-28T23:21:28.423Z,6.60
2023-04-28T23:24:15.071Z,6.56
2023-04-28T23:27:01.881Z,6.53
2023-04-28T23:29:48.373Z,6.51
2023-04-28T23:32:34.783Z,6.49
2023-04-28T23:35:21.407Z,6.49
2023-04-28T23:38:08.555Z,6.46
2023-04-28T23:40:55.148Z,6.44
2023-04-28T23:43:41.920Z,6.42
2023-04-28T23:46:28.462Z,6.41
2023-04-28T23:49:15.847Z,6.41
2023-04-28T23:52:03.473Z,6.41
2023-04-28T23:54:50.249Z,6.40
2023-04-28T23:57:37.976Z,6.40
